createdAt,value
2017-10-17T00:02:07.586Z,10.70
2017-10-17T00:04:42.466Z,10.70
2017-10-17T00:07:18.691Z,10.70
2017-10-17T00:09:53.816Z,10.70
2017-10-17T00:12:29.340Z,10.70
2017-10-17T00:15:03.380Z,10.70
2017-10-17T00:17:38.418Z,10.60
2017-10-17T00:20:13.838Z,10.50
2017-10-17T00:22:51.078Z,10.50
2017-10-17T00:25:29.164Z,10.50
2017-10-17T00:28:06.752Z,10.50
2017-10-17T00:30:44.999Z,10.40
2017-10-17T00:33:21.313Z,10.40
2017-10-17T00:36:02.160Z,10.30
2017-10-17T00:38:38.365Z,10.30
2017-10-17T00:41:14.054Z,10.20
2017-10-17T00:43:48.770Z,10.30
2017-10-17T00:46:22.803Z,10.30
2017-10-17T00:48:57.292Z,10.30
2017-10-17T00:51:31.277Z,10.30
2017-10-17T00:54:06.723Z,10.30
2017-10-17T00:56:41.228Z,10.30
2017-10-17T00:59:15.971Z,10.20
2017-10-17T01:01:54.185Z,10.20
2017-10-17T01:04:31.914Z,10.10
2017-10-17T01:07:08.400Z,10.00
2017-10-17T01:09:46.153Z,10.10
2017-10-17T01:12:21.293Z,10.10
2017-10-17T01:14:57.560Z,10.00
2017-10-17T01:17:32.905Z,9.90
2017-10-17T01:20:10.725Z,9.90
2017-10-17T01:22:45.738Z,9.90
2017-10-17T01:25:22.944Z,9.90
2017-10-17T01:28:07.726Z,9.90
2017-10-17T01:30:42.820Z,9.90
2017-10-17T01:33:16.679Z,9.90
2017-10-17T01:35:54.931Z,9.80
2017-10-17T01:38:56.206Z,9.80
2017-10-17T01:41:34.157Z,9.70
2017-10-17T01:57:48.556Z,9.60
2017-10-17T02:00:23.760Z,9.50
2017-10-17T02:02:59.404Z,9.50
2017-10-17T02:05:35.775Z,9.40
2017-10-17T02:08:16.094Z,9.40
2017-10-17T02:10:56.501Z,9.40
2017-10-17T02:13:30.505Z,9.40
2017-10-17T02:16:07.051Z,9.30
2017-10-17T02:18:49.668Z,9.30
2017-10-17T02:21:43.277Z,9.30
2017-10-17T02:27:17.303Z,9.30
2017-10-17T02:29:57.277Z,9.20
2017-10-17T02:32:33.370Z,9.30
2017-10-17T02:35:18.001Z,9.20
2017-10-17T02:37:53.231Z,9.20
2017-10-17T02:40:31.833Z,9.20
2017-10-17T02:43:11.483Z,9.10
2017-10-17T02:45:47.203Z,9.10
2017-10-17T02:48:29.908Z,9.10
2017-10-17T02:51:06.992Z,9.10
2017-10-17T02:53:44.333Z,9.10
2017-10-17T02:56:20.271Z,9.10
2017-10-17T02:58:55.550Z,9.10
2017-10-17T03:01:45.349Z,9.00
2017-10-17T03:04:36.619Z,9.00
2017-10-17T03:07:11.123Z,9.00
2017-10-17T03:09:49.429Z,9.00
2017-10-17T03:12:26.836Z,9.00
2017-10-17T03:15:05.815Z,8.90
2017-10-17T03:17:42.036Z,8.90
2017-10-17T03:20:22.040Z,8.80
2017-10-17T03:22:59.215Z,8.80
2017-10-17T03:25:36.824Z,8.80
2017-10-17T03:28:11.770Z,8.70
2017-10-17T03:30:50.456Z,8.70
2017-10-17T03:33:28.802Z,8.70
2017-10-17T03:36:07.081Z,8.60
2017-10-17T03:38:53.435Z,8.60
2017-10-17T03:41:36.058Z,8.60
2017-10-17T03:44:19.366Z,8.60
2017-10-17T03:46:55.522Z,8.60
2017-10-17T03:49:41.901Z,8.60
2017-10-17T03:52:24.581Z,8.60
2017-10-17T03:55:00.136Z,8.60
2017-10-17T03:57:39.123Z,8.50
2017-10-17T04:00:13.535Z,8.50
2017-10-17T04:02:47.625Z,8.50
2017-10-17T04:05:26.191Z,8.40
2017-10-17T04:24:50.663Z,8.30
2017-10-17T04:27:42.563Z,8.30
2017-10-17T04:30:47.863Z,8.30
2017-10-17T04:36:29.150Z,8.20
2017-10-17T04:39:11.732Z,8.20
2017-10-17T04:41:54.701Z,8.20
2017-10-17T04:44:42.888Z,8.10
2017-10-17T04:47:18.156Z,8.20
2017-10-17T04:53:14.827Z,8.10
2017-10-17T04:55:52.492Z,8.10
2017-10-17T04:58:44.596Z,8.10
2017-10-17T05:01:20.406Z,8.00
2017-10-17T05:07:06.728Z,8.00
2017-10-17T05:09:52.736Z,8.00
2017-10-17T05:12:35.443Z,8.10
2017-10-17T05:18:00.418Z,8.00
2017-10-17T05:20:49.492Z,7.90
2017-10-17T05:23:31.875Z,7.80
2017-10-17T05:26:12.435Z,7.90
2017-10-17T05:29:01.835Z,7.90
2017-10-17T05:31:39.495Z,7.90
2017-10-17T05:34:21.601Z,7.80
2017-10-17T05:50:40.298Z,7.70
2017-10-17T05:53:15.037Z,7.70
2017-10-17T05:55:55.111Z,7.70
2017-10-17T05:58:36.803Z,7.70
2017-10-17T06:01:15.684Z,7.60
2017-10-17T06:03:52.007Z,7.70
2017-10-17T06:06:28.921Z,7.70
2017-10-17T06:09:08.848Z,7.70
2017-10-17T06:11:46.949Z,7.70
2017-10-17T06:14:26.118Z,7.70
2017-10-17T06:17:00.821Z,7.70
2017-10-17T06:19:40.641Z,7.70
2017-10-17T06:22:19.869Z,7.70
2017-10-17T06:24:53.617Z,7.70
2017-10-17T06:27:30.036Z,7.70
2017-10-17T06:30:04.679Z,7.70
2017-10-17T06:32:40.510Z,7.80
2017-10-17T06:35:17.086Z,7.80
2017-10-17T06:37:53.481Z,7.80
2017-10-17T06:40:32.151Z,7.80
2017-10-17T06:43:05.953Z,7.90
2017-10-17T06:45:39.879Z,7.90
2017-10-17T06:48:16.498Z,7.90
2017-10-17T06:50:51.673Z,8.00
2017-10-17T06:53:26.971Z,8.00
2017-10-17T06:56:01.738Z,8.10
2017-10-17T06:58:37.524Z,8.10
2017-10-17T07:01:14.646Z,8.20
2017-10-17T07:03:49.481Z,8.10
2017-10-17T07:06:32.230Z,8.20
2017-10-17T07:09:06.865Z,8.30
2017-10-17T07:11:42.724Z,8.20
2017-10-17T07:17:03.420Z,8.10
2017-10-17T07:19:41.654Z,8.30
2017-10-17T07:22:17.637Z,8.30
2017-10-17T07:24:56.081Z,8.40
2017-10-17T07:27:33.456Z,8.50
2017-10-17T07:30:08.425Z,8.70
2017-10-17T07:32:46.287Z,8.90
2017-10-17T07:35:26.565Z,9.10
2017-10-17T07:38:07.191Z,9.40
2017-10-17T07:40:44.943Z,9.40
2017-10-17T07:43:21.178Z,9.60
2017-10-17T07:45:58.717Z,10.10
2017-10-17T07:48:35.185Z,10.00
2017-10-17T07:51:13.399Z,10.20
2017-10-17T07:53:50.301Z,10.50
2017-10-17T07:56:29.344Z,10.50
2017-10-17T07:59:09.461Z,10.60
2017-10-17T08:01:46.114Z,10.70
2017-10-17T08:04:21.177Z,10.80
2017-10-17T08:06:59.904Z,11.00
2017-10-17T08:09:39.245Z,11.10
2017-10-17T08:12:15.153Z,11.30
2017-10-17T08:14:52.823Z,11.50
2017-10-17T08:17:34.582Z,11.60
2017-10-17T08:20:10.992Z,11.70
2017-10-17T08:22:46.608Z,11.90
2017-10-17T08:25:24.576Z,12.00
2017-10-17T08:28:03.176Z,12.20
2017-10-17T08:30:40.795Z,12.30
2017-10-17T08:33:15.700Z,12.40
2017-10-17T08:35:54.159Z,12.50
2017-10-17T08:38:31.086Z,12.80
2017-10-17T08:41:10.981Z,12.70
2017-10-17T08:43:45.867Z,12.90
2017-10-17T08:46:24.039Z,13.00
2017-10-17T08:48:57.930Z,13.10
2017-10-17T08:51:35.890Z,13.20
2017-10-17T08:54:13.452Z,13.30
2017-10-17T08:56:56.184Z,13.50
2017-10-17T08:59:37.354Z,13.60
2017-10-17T09:02:15.796Z,13.60
2017-10-17T09:04:58.500Z,13.70
2017-10-17T09:07:37.955Z,13.90
2017-10-17T09:10:14.895Z,13.90
2017-10-17T09:12:51.104Z,13.90
2017-10-17T09:18:11.482Z,14.20
2017-10-17T09:20:52.520Z,14.30
2017-10-17T09:23:38.988Z,14.50
2017-10-17T09:26:19.148Z,14.50
2017-10-17T09:28:56.146Z,14.60
2017-10-17T09:31:35.079Z,14.70
2017-10-17T09:34:19.074Z,14.90
2017-10-17T09:36:57.866Z,14.90
2017-10-17T09:39:35.985Z,15.00
2017-10-17T09:42:14.861Z,15.00
2017-10-17T09:44:51.191Z,15.10
2017-10-17T09:47:29.139Z,15.40
2017-10-17T09:50:08.755Z,15.30
2017-10-17T09:52:44.192Z,15.50
2017-10-17T09:55:18.431Z,15.60
